Time;durP1;ratioP1;P1;durP2;ratioP2;P2;SDS_P1;SDS_P2;PMS_P1;PMS_P2;Temp;Humidity;BMP_temperature;BMP_pressure;BME280_temperature;BME280_humidity;BME280_pressure;Samples;Min_cycle;Max_cycle;Signal;HPM_P1;HPM_P2
2023/04/04 00:01:21;;;;;;;1999.90;999.90;;;4.80;97.90;;;;;;5012046;28;20416;-72
2023/04/04 00:03:50;;;;;;;1999.90;999.90;;;4.80;98.80;;;;;;5011513;28;20408;-73
2023/04/04 00:06:16;;;;;;;1999.90;999.90;;;4.70;99.40;;;;;;5011815;28;20165;-73
2023/04/04 00:08:42;;;;;;;1999.90;999.90;;;4.70;98.60;;;;;;5011830;28;20820;-73
2023/04/04 00:11:07;;;;;;;1999.90;999.90;;;4.60;99.40;;;;;;5011789;28;20455;-72
2023/04/04 00:13:33;;;;;;;1999.90;999.90;;;4.60;99.70;;;;;;5011514;28;20192;-74
2023/04/04 00:15:59;;;;;;;1999.90;999.90;;;4.60;99.90;;;;;;5011939;28;20639;-74
2023/04/04 00:18:24;;;;;;;1999.90;999.90;;;4.60;99.90;;;;;;5011995;28;20189;-73
2023/04/04 00:20:50;;;;;;;1999.90;999.90;;;4.50;99.90;;;;;;5010080;28;20201;-73
2023/04/04 00:23:15;;;;;;;1999.90;999.90;;;4.50;99.90;;;;;;5011367;28;20197;-73
2023/04/04 00:25:41;;;;;;;1999.90;999.90;;;4.50;99.90;;;;;;5011815;28;20184;-73
2023/04/04 00:28:06;;;;;;;1999.90;999.90;;;3.90;99.90;;;;;;5011580;28;20200;-73
2023/04/04 00:30:33;;;;;;;1999.90;999.90;;;4.30;99.90;;;;;;5014009;28;20685;-73
2023/04/04 00:33:00;;;;;;;1999.90;999.90;;;4.30;99.90;;;;;;5014953;28;20508;-73
2023/04/04 00:35:26;;;;;;;1999.90;999.90;;;4.30;99.90;;;;;;5015491;28;20929;-73
2023/04/04 00:37:51;;;;;;;1999.90;999.90;;;4.40;99.90;;;;;;5015168;28;20502;-74
2023/04/04 00:40:17;;;;;;;1999.90;999.90;;;4.30;99.90;;;;;;5015256;28;20647;-73
2023/04/04 00:42:43;;;;;;;1999.90;999.90;;;4.30;99.90;;;;;;5015236;28;20252;-76
2023/04/04 00:45:09;;;;;;;1999.90;999.90;;;4.40;99.90;;;;;;5014736;28;20177;-75
2023/04/04 00:47:36;;;;;;;1999.90;999.90;;;4.30;99.90;;;;;;5014904;28;20228;-73
2023/04/04 00:50:02;;;;;;;1999.90;999.90;;;4.30;99.90;;;;;;5015084;28;20463;-76
2023/04/04 00:52:28;;;;;;;1999.90;999.90;;;4.20;99.90;;;;;;5015229;28;20400;-76
2023/04/04 00:54:55;;;;;;;1999.90;999.90;;;4.20;99.90;;;;;;5014551;28;20408;-76
2023/04/04 00:57:21;;;;;;;1999.90;999.90;;;4.20;99.90;;;;;;5014827;28;20560;-75
2023/04/04 00:59:47;;;;;;;1999.90;999.90;;;4.10;99.90;;;;;;5015032;28;20404;-75
2023/04/04 01:02:13;;;;;;;1999.90;999.90;;;4.10;99.90;;;;;;5014913;28;20470;-74
2023/04/04 01:04:38;;;;;;;1999.90;999.90;;;4.00;99.90;;;;;;5014500;28;20898;-76
2023/04/04 01:07:04;;;;;;;1999.90;999.90;;;4.00;99.90;;;;;;5014487;28;20808;-75
2023/04/04 01:09:30;;;;;;;1999.90;999.90;;;4.00;99.90;;;;;;5014844;28;20196;-75
2023/04/04 01:11:56;;;;;;;1999.90;999.90;;;3.90;99.90;;;;;;5014845;28;20204;-74
2023/04/04 01:14:22;;;;;;;1999.90;999.90;;;3.90;99.90;;;;;;5014282;28;20412;-75
2023/04/04 01:16:51;;;;;;;1999.90;999.90;;;3.80;99.90;;;;;;5014464;28;20400;-75
2023/04/04 01:19:25;;;;;;;1999.90;999.90;;;3.80;99.90;;;;;;5014685;28;20435;-75
2023/04/04 01:21:52;;;;;;;1999.90;999.90;;;3.80;99.90;;;;;;5014775;28;20403;-76
2023/04/04 01:24:20;;;;;;;1999.90;999.90;;;3.80;99.90;;;;;;5014021;28;20411;-75
2023/04/04 01:26:46;;;;;;;1999.90;999.90;;;3.60;99.90;;;;;;5014259;28;20416;-76
2023/04/04 01:29:11;;;;;;;1999.90;999.90;;;3.70;99.90;;;;;;5014097;28;20842;-74
2023/04/04 01:31:48;;;;;;;1999.90;999.90;;;3.60;99.90;;;;;;5014426;28;20463;-76
2023/04/04 01:34:27;;;;;;;1999.90;999.90;;;3.50;99.90;;;;;;5013939;28;20172;-75
2023/04/04 01:37:22;;;;;;;1999.90;999.90;;;3.30;99.90;;;;;;5014103;28;20400;-75
2023/04/04 01:39:52;;;;;;;1999.90;999.90;;;3.40;99.90;;;;;;4997467;28;20478;-74
2023/04/04 01:42:19;;;;;;;1999.90;999.90;;;3.40;99.90;;;;;;5013626;28;20426;-76
2023/04/04 01:44:45;;;;;;;1999.90;999.90;;;3.40;99.90;;;;;;5013768;28;20408;-75
2023/04/04 01:47:13;;;;;;;1999.90;999.90;;;3.40;99.90;;;;;;5013880;28;20437;-76
2023/04/04 01:49:39;;;;;;;1999.90;999.90;;;3.30;99.90;;;;;;5013967;28;20448;-75
2023/04/04 01:52:06;;;;;;;1999.90;999.90;;;3.30;99.90;;;;;;5013996;28;20443;-75
2023/04/04 01:54:32;;;;;;;1999.90;999.90;;;3.20;99.90;;;;;;5013478;28;20404;-76
2023/04/04 01:56:58;;;;;;;1999.90;999.90;;;2.90;99.90;;;;;;5013651;28;20944;-76
2023/04/04 01:59:24;;;;;;;1999.90;999.90;;;3.20;99.90;;;;;;5013975;28;20411;-76
2023/04/04 02:01:49;;;;;;;1999.90;999.90;;;3.10;99.90;;;;;;5013881;28;20303;-76
2023/04/04 02:04:15;;;;;;;1999.90;999.90;;;3.10;99.90;;;;;;5013338;28;20169;-76
2023/04/04 02:06:41;;;;;;;1999.90;999.90;;;3.10;99.90;;;;;;5013547;28;20509;-75
2023/04/04 02:09:06;;;;;;;1999.90;999.90;;;3.10;99.90;;;;;;5013505;28;20227;-75
2023/04/04 02:11:32;;;;;;;1999.90;999.90;;;3.10;99.90;;;;;;5013593;28;20224;-75
2023/04/04 02:13:57;;;;;;;1999.90;999.90;;;3.10;99.90;;;;;;5013152;28;20191;-75
2023/04/04 02:16:23;;;;;;;1999.90;999.90;;;3.10;99.90;;;;;;5013380;28;20248;-75
2023/04/04 02:18:48;;;;;;;1999.90;999.90;;;3.10;99.90;;;;;;5013497;28;20185;-75
2023/04/04 02:21:14;;;;;;;1999.90;999.90;;;3.10;99.90;;;;;;5013488;28;20169;-75
2023/04/04 02:23:40;;;;;;;1999.90;999.90;;;3.10;99.90;;;;;;5012936;28;20231;-75
2023/04/04 02:26:05;;;;;;;1999.90;999.90;;;3.10;99.90;;;;;;5013227;28;20173;-75
2023/04/04 02:28:31;;;;;;;1999.90;999.90;;;3.00;99.90;;;;;;5013310;28;20252;-75
2023/04/04 02:31:01;;;;;;;1999.90;999.90;;;3.10;99.90;;;;;;5013309;28;20263;-75
2023/04/04 02:33:27;;;;;;;1999.90;999.90;;;3.10;99.90;;;;;;5012835;28;20179;-76
2023/04/04 02:35:56;;;;;;;1999.90;999.90;;;3.00;99.90;;;;;;5013035;28;20437;-76
2023/04/04 02:38:21;;;;;;;1999.90;999.90;;;3.00;99.90;;;;;;5013073;28;20427;-76
2023/04/04 02:40:47;;;;;;;1999.90;999.90;;;3.00;99.90;;;;;;5013134;28;20408;-75
2023/04/04 02:43:12;;;;;;;1999.90;999.90;;;3.00;99.90;;;;;;5012592;28;20185;-76
2023/04/04 02:45:38;;;;;;;1999.90;999.90;;;2.90;99.90;;;;;;5013098;28;20169;-75
2023/04/04 02:48:04;;;;;;;1999.90;999.90;;;2.80;99.90;;;;;;5012766;28;20201;-75
2023/04/04 02:50:29;;;;;;;1999.90;999.90;;;2.80;99.90;;;;;;5012864;28;20228;-75
2023/04/04 02:53:02;;;;;;;1999.90;999.90;;;2.80;99.90;;;;;;5011631;28;20550;-76
2023/04/04 02:55:27;;;;;;;1999.90;999.90;;;2.70;99.90;;;;;;5012890;28;20173;-76
2023/04/04 02:57:53;;;;;;;1999.90;999.90;;;2.70;99.90;;;;;;5012641;28;20328;-76
2023/04/04 03:00:19;;;;;;;1999.90;999.90;;;2.70;99.90;;;;;;5012852;28;20169;-76
2023/04/04 03:02:45;;;;;;;1999.90;999.90;;;2.70;99.90;;;;;;5012766;28;20165;-76
2023/04/04 03:05:11;;;;;;;1999.90;999.90;;;2.70;99.90;;;;;;5012174;28;20173;-75
2023/04/04 03:07:37;;;;;;;1999.90;999.90;;;2.60;99.90;;;;;;5012252;28;20995;-76
2023/04/04 03:10:03;;;;;;;1999.90;999.90;;;2.60;99.90;;;;;;5012581;28;20203;-75
2023/04/04 03:12:28;;;;;;;1999.90;999.90;;;2.60;99.90;;;;;;5012672;28;20765;-75
2023/04/04 03:14:54;;;;;;;1999.90;999.90;;;2.60;99.90;;;;;;5012184;28;20773;-75
2023/04/04 03:17:20;;;;;;;1999.90;999.90;;;2.60;99.90;;;;;;5012752;28;20687;-76
2023/04/04 03:19:45;;;;;;;1999.90;999.90;;;2.60;99.90;;;;;;5012434;28;20166;-75
2023/04/04 03:22:11;;;;;;;1999.90;999.90;;;2.50;99.90;;;;;;5012465;28;20400;-75
2023/04/04 03:24:37;;;;;;;1999.90;999.90;;;2.50;99.90;;;;;;5011955;28;20643;-76
2023/04/04 03:27:02;;;;;;;1999.90;999.90;;;2.40;99.90;;;;;;5012129;28;20166;-75
2023/04/04 03:29:28;;;;;;;1999.90;999.90;;;2.40;99.90;;;;;;5012388;28;20165;-76
2023/04/04 03:31:53;;;;;;;1999.90;999.90;;;2.40;99.90;;;;;;5012312;28;20228;-76
2023/04/04 03:34:19;;;;;;;1999.90;999.90;;;2.30;99.90;;;;;;5011735;28;20165;-75
2023/04/04 03:36:45;;;;;;;1999.90;999.90;;;;;;;;;;5011981;28;20244;-76
2023/04/04 03:39:11;;;;;;;1999.90;999.90;;;2.60;99.90;;;;;;5012296;28;20180;-76
2023/04/04 03:41:37;;;;;;;1999.90;999.90;;;2.30;99.90;;;;;;5012246;28;20408;-75
2023/04/04 03:44:06;;;;;;;1999.90;999.90;;;2.20;99.90;;;;;;5011744;28;20408;-75
2023/04/04 03:46:31;;;;;;;1999.90;999.90;;;2.20;99.90;;;;;;5011939;28;20227;-75
2023/04/04 03:48:58;;;;;;;1999.90;999.90;;;2.10;99.90;;;;;;5012076;28;20510;-75
2023/04/04 03:51:24;;;;;;;1999.90;999.90;;;2.20;99.90;;;;;;5012045;28;20201;-76
2023/04/04 03:53:49;;;;;;;1999.90;999.90;;;2.10;99.90;;;;;;5011731;28;20403;-75
2023/04/04 03:56:15;;;;;;;1999.90;999.90;;;2.10;99.90;;;;;;5011907;28;20173;-75
2023/04/04 03:58:41;;;;;;;1999.90;999.90;;;2.10;99.90;;;;;;5012027;28;20192;-75
2023/04/04 04:01:07;;;;;;;1999.90;999.90;;;2.00;99.90;;;;;;5012129;28;20423;-75
2023/04/04 04:03:32;;;;;;;1999.90;999.90;;;2.00;99.90;;;;;;5011529;28;20247;-76
2023/04/04 04:05:58;;;;;;;1999.90;999.90;;;1.90;99.90;;;;;;5014989;28;20653;-75
2023/04/04 04:08:24;;;;;;;1999.90;999.90;;;2.00;99.90;;;;;;5015861;28;20222;-76
2023/04/04 04:10:50;;;;;;;1999.90;999.90;;;1.90;99.90;;;;;;5015900;28;20463;-76
2023/04/04 04:13:16;;;;;;;1999.90;999.90;;;1.90;99.90;;;;;;5015488;28;20169;-76
2023/04/04 04:15:41;;;;;;;1999.90;999.90;;;1.90;99.90;;;;;;5015826;28;20408;-76
2023/04/04 04:18:07;;;;;;;1999.90;999.90;;;1.90;99.90;;;;;;5015607;28;20189;-76
2023/04/04 04:20:32;;;;;;;1999.90;999.90;;;1.90;99.90;;;;;;5015731;28;20630;-76
2023/04/04 04:22:58;;;;;;;1999.90;999.90;;;1.90;99.90;;;;;;5015279;28;20165;-76
2023/04/04 04:25:23;;;;;;;1999.90;999.90;;;1.80;99.90;;;;;;5015660;28;20168;-76
2023/04/04 04:27:50;;;;;;;1999.90;999.90;;;1.90;99.90;;;;;;5015452;28;20694;-76
2023/04/04 04:30:15;;;;;;;1999.90;999.90;;;1.90;99.90;;;;;;5015531;28;20200;-76
2023/04/04 04:32:41;;;;;;;1999.90;999.90;;;2.00;99.90;;;;;;5015522;28;20264;-76
2023/04/04 04:35:07;;;;;;;1999.90;999.90;;;1.90;99.90;;;;;;5015116;28;20542;-76
2023/04/04 04:37:33;;;;;;;1999.90;999.90;;;1.80;99.90;;;;;;5015172;28;20192;-76
2023/04/04 04:40:00;;;;;;;1999.90;999.90;;;1.80;99.90;;;;;;5015420;28;20173;-76
2023/04/04 04:42:26;;;;;;;1999.90;999.90;;;1.70;99.90;;;;;;5015360;28;20411;-76
2023/04/04 04:44:51;;;;;;;1999.90;999.90;;;1.70;99.90;;;;;;5014934;28;20767;-76
2023/04/04 04:47:17;;;;;;;1999.90;999.90;;;1.80;99.90;;;;;;5014983;28;20275;-76
2023/04/04 04:49:45;;;;;;;1999.90;999.90;;;1.80;99.90;;;;;;5015103;28;20598;-76
2023/04/04 04:52:11;;;;;;;1999.90;999.90;;;1.70;99.90;;;;;;5015247;28;20196;-75
2023/04/04 04:54:37;;;;;;;1999.90;999.90;;;1.70;99.90;;;;;;5014622;28;20400;-75
2023/04/04 04:57:02;;;;;;;1999.90;999.90;;;1.70;99.90;;;;;;5014814;28;20172;-75
2023/04/04 04:59:28;;;;;;;1999.90;999.90;;;1.70;99.90;;;;;;5015075;28;20605;-75
2023/04/04 05:01:54;;;;;;;1999.90;999.90;;;1.70;99.90;;;;;;5014959;28;20184;-75
2023/04/04 05:04:19;;;;;;;1999.90;999.90;;;1.70;99.90;;;;;;5014605;28;20180;-75
2023/04/04 05:06:45;;;;;;;1999.90;999.90;;;;;;;;;;5014710;28;20166;-75
2023/04/04 05:09:11;;;;;;;1999.90;999.90;;;1.60;99.90;;;;;;5014796;28;20192;-75
2023/04/04 05:11:36;;;;;;;1999.90;999.90;;;1.60;99.90;;;;;;5014698;28;20200;-75
2023/04/04 05:14:02;;;;;;;1999.90;999.90;;;1.60;99.90;;;;;;5014301;28;20164;-75
2023/04/04 05:16:27;;;;;;;1999.90;999.90;;;1.60;99.90;;;;;;5013474;28;20199;-75
2023/04/04 05:18:53;;;;;;;1999.90;999.90;;;1.60;99.90;;;;;;5014860;28;20196;-74
2023/04/04 05:21:18;;;;;;;1999.90;999.90;;;1.60;99.90;;;;;;5014825;28;20170;-74
2023/04/04 05:23:45;;;;;;;1999.90;999.90;;;1.60;99.90;;;;;;5014325;28;20650;-74
2023/04/04 05:26:10;;;;;;;1999.90;999.90;;;1.50;99.90;;;;;;5014586;28;20169;-74
2023/04/04 05:28:36;;;;;;;1999.90;999.90;;;1.50;99.90;;;;;;5014636;28;20251;-74
2023/04/04 05:31:02;;;;;;;1999.90;999.90;;;1.50;99.90;;;;;;5014512;28;20189;-74
2023/04/04 05:33:27;;;;;;;1999.90;999.90;;;1.80;99.90;;;;;;5013992;28;20180;-74
2023/04/04 05:35:53;;;;;;;1999.90;999.90;;;1.60;99.90;;;;;;5014442;28;20162;-74
2023/04/04 05:38:18;;;;;;;1999.90;999.90;;;1.60;99.90;;;;;;5014490;28;20220;-74
2023/04/04 05:40:44;;;;;;;1999.90;999.90;;;1.60;99.90;;;;;;5014428;28;20647;-74
2023/04/04 05:43:10;;;;;;;1999.90;999.90;;;1.60;99.90;;;;;;5013963;28;20223;-75
2023/04/04 05:45:36;;;;;;;1999.90;999.90;;;1.60;99.90;;;;;;5014134;28;20498;-74
2023/04/04 05:48:01;;;;;;;1999.90;999.90;;;1.70;99.90;;;;;;5013984;28;20185;-74
2023/04/04 05:50:27;;;;;;;1999.90;999.90;;;1.70;99.90;;;;;;5014084;28;20223;-74
2023/04/04 05:52:54;;;;;;;1999.90;999.90;;;1.80;99.90;;;;;;5014139;28;20219;-74
2023/04/04 05:55:20;;;;;;;1999.90;999.90;;;1.80;99.90;;;;;;5014108;28;20193;-74
2023/04/04 05:57:50;;;;;;;1999.90;999.90;;;1.90;99.90;;;;;;5013784;28;20342;-74
2023/04/04 06:00:16;;;;;;;1999.90;999.90;;;1.90;99.90;;;;;;5013945;28;20211;-74
2023/04/04 06:02:43;;;;;;;1999.90;999.90;;;2.00;99.90;;;;;;5013804;28;20173;-74
2023/04/04 06:05:09;;;;;;;1999.90;999.90;;;2.00;99.90;;;;;;5013399;28;20165;-74
2023/04/04 06:07:35;;;;;;;1999.90;999.90;;;2.00;99.90;;;;;;5013525;28;20205;-74
2023/04/04 06:10:01;;;;;;;1999.90;999.90;;;2.10;99.90;;;;;;5013823;28;20581;-74
2023/04/04 06:12:27;;;;;;;1999.90;999.90;;;2.10;99.90;;;;;;5013723;28;20173;-74
2023/04/04 06:14:52;;;;;;;1999.90;999.90;;;2.20;99.90;;;;;;5013147;28;20408;-74
2023/04/04 06:17:18;;;;;;;1999.90;999.90;;;2.20;99.90;;;;;;5013384;28;20196;-74
2023/04/04 06:19:43;;;;;;;1999.90;999.90;;;2.30;99.90;;;;;;5013675;28;20185;-75
2023/04/04 06:22:09;;;;;;;1999.90;999.90;;;2.40;99.90;;;;;;5013519;28;20540;-75
2023/04/04 06:24:35;;;;;;;1999.90;999.90;;;2.40;99.90;;;;;;5013028;28;20169;-75
2023/04/04 06:27:00;;;;;;;1999.90;999.90;;;2.60;99.90;;;;;;5013054;28;20211;-75
2023/04/04 06:29:26;;;;;;;1999.90;999.90;;;2.60;99.90;;;;;;5012980;28;20176;-75
2023/04/04 06:31:52;;;;;;;1999.90;999.90;;;2.70;99.90;;;;;;5013245;28;20208;-75
2023/04/04 06:34:20;;;;;;;1999.90;999.90;;;2.80;99.90;;;;;;5012839;28;20404;-75
2023/04/04 06:36:46;;;;;;;1999.90;999.90;;;2.90;99.90;;;;;;5013058;28;20223;-75
2023/04/04 06:39:12;;;;;;;1999.90;999.90;;;3.00;99.90;;;;;;5013188;28;20416;-75
2023/04/04 06:41:38;;;;;;;1999.90;999.90;;;3.10;99.90;;;;;;5013080;28;20177;-75
2023/04/04 06:44:03;;;;;;;1999.90;999.90;;;3.20;99.90;;;;;;5012573;28;20219;-75
2023/04/04 06:46:30;;;;;;;1999.90;999.90;;;3.30;99.90;;;;;;5012785;28;20173;-75
2023/04/04 06:48:56;;;;;;;1999.90;999.90;;;3.40;99.90;;;;;;5012985;28;20272;-75
2023/04/04 06:51:22;;;;;;;1999.90;999.90;;;3.50;99.90;;;;;;5012878;28;20555;-75
2023/04/04 06:53:48;;;;;;;1999.90;999.90;;;3.60;99.90;;;;;;5012459;28;20176;-75
2023/04/04 06:56:14;;;;;;;1999.90;999.90;;;3.60;99.90;;;;;;5012642;28;20420;-75
2023/04/04 06:58:39;;;;;;;1999.90;999.90;;;3.70;99.90;;;;;;5012778;28;20836;-75
2023/04/04 07:01:05;;;;;;;1999.90;999.90;;;3.80;99.90;;;;;;5012790;28;20598;-75
2023/04/04 07:03:31;;;;;;;1999.90;999.90;;;3.90;99.90;;;;;;5012401;28;20192;-75
2023/04/04 07:05:57;;;;;;;1999.90;999.90;;;4.10;99.90;;;;;;5012568;28;20400;-75
2023/04/04 07:08:22;;;;;;;1999.90;999.90;;;4.10;99.90;;;;;;5012371;28;20221;-75
2023/04/04 07:10:48;;;;;;;1999.90;999.90;;;4.20;99.90;;;;;;5012511;28;20200;-75
2023/04/04 07:13:14;;;;;;;1999.90;999.90;;;4.30;99.90;;;;;;5012177;28;20173;-75
2023/04/04 07:15:40;;;;;;;1999.90;999.90;;;4.40;99.90;;;;;;5012488;28;20535;-75
2023/04/04 07:18:06;;;;;;;1999.90;999.90;;;4.50;99.90;;;;;;5012306;28;20420;-75
2023/04/04 07:20:32;;;;;;;1999.90;999.90;;;4.50;99.90;;;;;;5012464;28;20165;-75
2023/04/04 07:22:57;;;;;;;1999.90;999.90;;;4.60;99.90;;;;;;5011958;28;20473;-75
2023/04/04 07:25:23;;;;;;;1999.90;999.90;;;4.70;99.90;;;;;;5012374;28;20179;-75
2023/04/04 07:27:48;;;;;;;1999.90;999.90;;;4.70;99.90;;;;;;5012048;28;20184;-75
2023/04/04 07:30:14;;;;;;;1999.90;999.90;;;4.80;99.90;;;;;;5012259;28;20725;-75
2023/04/04 07:32:40;;;;;;;1999.90;999.90;;;4.90;99.90;;;;;;5012306;28;20173;-75
2023/04/04 07:35:06;;;;;;;1999.90;999.90;;;4.90;99.90;;;;;;5011896;28;20161;-75
2023/04/04 07:37:35;;;;;;;1999.90;999.90;;;5.00;99.90;;;;;;5011986;28;20180;-75
2023/04/04 07:40:01;;;;;;;1999.90;999.90;;;5.10;99.90;;;;;;5011652;28;20426;-75
2023/04/04 07:42:26;;;;;;;1999.90;999.90;;;5.10;99.90;;;;;;5012249;28;20412;-75
2023/04/04 07:44:52;;;;;;;1999.90;999.90;;;5.10;99.90;;;;;;5011673;28;20544;-75
2023/04/04 07:47:18;;;;;;;1999.90;999.90;;;5.20;99.90;;;;;;5012056;28;20185;-76
2023/04/04 07:49:43;;;;;;;1999.90;999.90;;;5.30;99.90;;;;;;5012187;28;20176;-75
2023/04/04 07:52:09;;;;;;;1999.90;999.90;;;5.40;99.90;;;;;;5012272;28;20646;-76
2023/04/04 07:54:35;;;;;;;1999.90;999.90;;;5.40;99.90;;;;;;5011525;28;20627;-75
2023/04/04 07:57:04;;;;;;;1999.90;999.90;;;5.50;99.90;;;;;;5011798;28;20404;-75
2023/04/04 07:59:30;;;;;;;1999.90;999.90;;;5.60;99.90;;;;;;5012020;28;20215;-75
2023/04/04 08:01:56;;;;;;;1999.90;999.90;;;5.60;99.90;;;;;;5012065;28;20823;-75
2023/04/04 08:04:22;;;;;;;1999.90;999.90;;;5.70;99.90;;;;;;5011558;28;20416;-75
2023/04/04 08:06:47;;;;;;;1999.90;999.90;;;5.90;99.90;;;;;;5011695;28;20646;-75
2023/04/04 08:09:13;;;;;;;1999.90;999.90;;;5.80;99.90;;;;;;5011835;28;20185;-75
2023/04/04 08:11:38;;;;;;;1999.90;999.90;;;5.90;99.90;;;;;;5011846;28;20292;-75
2023/04/04 08:14:04;;;;;;;1999.90;999.90;;;5.90;99.90;;;;;;5011414;28;20260;-75
2023/04/04 08:16:30;;;;;;;1999.90;999.90;;;6.00;99.90;;;;;;5011731;28;20240;-75
2023/04/04 08:18:56;;;;;;;1999.90;999.90;;;6.10;99.90;;;;;;5011669;28;20451;-75
2023/04/04 08:21:21;;;;;;;1999.90;999.90;;;6.20;99.90;;;;;;5011850;28;20174;-75
2023/04/04 08:23:47;;;;;;;1999.90;999.90;;;6.10;99.90;;;;;;5011368;28;20208;-75
2023/04/04 08:26:13;;;;;;;1999.90;999.90;;;6.20;99.90;;;;;;5011665;28;20468;-75
2023/04/04 08:28:38;;;;;;;1999.90;999.90;;;6.20;99.90;;;;;;5011658;28;20184;-75
2023/04/04 08:31:04;;;;;;;1999.90;999.90;;;6.20;99.90;;;;;;5011754;28;20558;-75
2023/04/04 08:33:30;;;;;;;1999.90;999.90;;;6.20;99.80;;;;;;5011178;28;20205;-75
2023/04/04 08:35:57;;;;;;;1999.90;999.90;;;6.30;99.60;;;;;;5011555;28;20408;-75
2023/04/04 08:38:22;;;;;;;1999.90;999.90;;;6.40;98.60;;;;;;5011407;28;20185;-75
2023/04/04 08:40:49;;;;;;;1999.90;999.90;;;6.40;97.40;;;;;;5011672;28;20419;-75
2023/04/04 08:43:18;;;;;;;1999.90;999.90;;;6.40;98.40;;;;;;5011175;28;20179;-75
2023/04/04 08:45:45;;;;;;;1999.90;999.90;;;6.40;97.80;;;;;;5011671;28;20439;-74
2023/04/04 08:48:12;;;;;;;1999.90;999.90;;;6.30;96.10;;;;;;5011262;28;20521;-75
2023/04/04 08:50:41;;;;;;;1999.90;999.90;;;6.40;96.70;;;;;;5012428;28;20458;-75
2023/04/04 08:53:08;;;;;;;1999.90;999.90;;;6.40;97.20;;;;;;5014644;28;20404;-75
2023/04/04 08:55:33;;;;;;;1999.90;999.90;;;6.50;98.90;;;;;;5015217;28;20409;-75
2023/04/04 08:57:59;;;;;;;1999.90;999.90;;;6.60;98.70;;;;;;5014806;28;20436;-75
2023/04/04 09:00:25;;;;;;;1999.90;999.90;;;6.70;98.70;;;;;;5015034;28;20183;-75
2023/04/04 09:02:56;;;;;;;1999.90;999.90;;;6.80;99.40;;;;;;5014971;28;20411;-75
2023/04/04 09:05:24;;;;;;;1999.90;999.90;;;6.90;99.90;;;;;;5015105;28;20655;-75
2023/04/04 09:07:51;;;;;;;1999.90;999.90;;;7.00;96.70;;;;;;5014436;28;20545;-75
2023/04/04 09:10:16;;;;;;;1999.90;999.90;;;6.90;96.90;;;;;;5014759;28;20455;-75
2023/04/04 09:12:46;;;;;;;1999.90;999.90;;;7.20;97.80;;;;;;5014779;28;20460;-75
2023/04/04 09:15:12;;;;;;;1999.90;999.90;;;7.00;94.30;;;;;;5014179;28;20196;-75
2023/04/04 09:17:38;;;;;;;1999.90;999.90;;;7.20;94.50;;;;;;5014937;28;20428;-74
2023/04/04 09:20:36;;;;;;;1999.90;999.90;;;7.30;92.90;;;;;;5014693;28;20934;-74
2023/04/04 09:23:05;;;;;;;1999.90;999.90;;;7.40;94.80;;;;;;5014153;28;20515;-74
2023/04/04 09:25:31;;;;;;;1999.90;999.90;;;7.50;94.20;;;;;;5014571;28;20903;-74
2023/04/04 09:27:57;;;;;;;1999.90;999.90;;;7.60;93.60;;;;;;5014251;28;20435;-74
2023/04/04 09:30:24;;;;;;;1999.90;999.90;;;7.40;82.80;;;;;;5014437;28;20204;-74
2023/04/04 09:32:50;;;;;;;1999.90;999.90;;;7.40;84.00;;;;;;5014518;28;20169;-74
2023/04/04 09:35:15;;;;;;;1999.90;999.90;;;7.40;87.40;;;;;;5013941;28;20447;-74
2023/04/04 09:37:42;;;;;;;1999.90;999.90;;;7.60;88.50;;;;;;5014145;28;20962;-75
2023/04/04 09:40:09;;;;;;;1999.90;999.90;;;7.60;91.50;;;;;;5014351;28;20194;-75
2023/04/04 09:42:35;;;;;;;1999.90;999.90;;;7.70;82.90;;;;;;5014268;28;20414;-74
2023/04/04 09:45:01;;;;;;;1999.90;999.90;;;7.90;78.70;;;;;;5007000;28;20437;-74
2023/04/04 09:47:29;;;;;;;1999.90;999.90;;;8.00;77.50;;;;;;5009525;28;20511;-72
2023/04/04 09:50:02;;;;;;;1999.90;999.90;;;8.00;73.60;;;;;;5010428;28;20474;-73
2023/04/04 09:52:32;;;;;;;1999.90;999.90;;;8.10;73.00;;;;;;5010146;28;20424;-72
2023/04/04 09:54:59;;;;;;;1999.90;999.90;;;8.10;65.60;;;;;;5008981;28;20452;-72
2023/04/04 09:57:32;;;;;;;1999.90;999.90;;;8.50;75.30;;;;;;5009215;28;20951;-71
2023/04/04 09:59:59;;;;;;;1999.90;999.90;;;8.20;65.80;;;;;;5009992;28;20444;-76
2023/04/04 10:02:25;;;;;;;1999.90;999.90;;;8.30;63.90;;;;;;5009196;28;20478;-74
2023/04/04 10:04:53;;;;;;;1999.90;999.90;;;8.20;57.80;;;;;;5008763;28;20421;-75
2023/04/04 10:07:20;;;;;;;1999.90;999.90;;;8.20;64.10;;;;;;5009386;28;20869;-75
2023/04/04 10:09:49;;;;;;;1999.90;999.90;;;8.40;69.50;;;;;;5009852;28;20412;-75
2023/04/04 10:12:16;;;;;;;1999.90;999.90;;;8.60;63.40;;;;;;5009018;28;20497;-75
2023/04/04 10:14:41;;;;;;;1999.90;999.90;;;8.60;62.30;;;;;;5008711;28;20409;-77
2023/04/04 10:17:12;;;;;;;1999.90;999.90;;;8.70;63.00;;;;;;5009465;28;20462;-75
2023/04/04 10:19:38;;;;;;;1999.90;999.90;;;9.10;60.90;;;;;;5009195;28;20178;-75
2023/04/04 10:22:08;;;;;;;1999.90;999.90;;;9.00;56.30;;;;;;5008901;28;20413;-75
2023/04/04 10:24:34;;;;;;;1999.90;999.90;;;8.70;55.50;;;;;;5009122;28;20414;-76
2023/04/04 10:27:00;;;;;;;1999.90;999.90;;;8.70;72.80;;;;;;5008931;28;20414;-75
2023/04/04 10:29:26;;;;;;;1999.90;999.90;;;9.20;56.40;;;;;;5008841;28;20179;-75
2023/04/04 10:31:59;;;;;;;1999.90;999.90;;;9.30;55.20;;;;;;5009514;28;20225;-75
2023/04/04 10:34:37;;;;;;;1999.90;999.90;;;9.00;51.00;;;;;;5009278;28;20442;-76
2023/04/04 10:37:23;;;;;;;1999.90;999.90;;;9.40;72.40;;;;;;5009297;28;20411;-76
2023/04/04 10:39:54;;;;;;;1999.90;999.90;;;9.40;56.90;;;;;;5008796;28;20910;-76
2023/04/04 10:42:22;;;;;;;1999.90;999.90;;;9.70;52.00;;;;;;5009401;28;20911;-75
2023/04/04 10:44:48;;;;;;;1999.90;999.90;;;9.50;48.80;;;;;;5008445;28;20422;-76
2023/04/04 10:47:18;;;;;;;1999.90;999.90;;;10.00;51.90;;;;;;5008081;28;20431;-75
2023/04/04 10:49:45;;;;;;;1999.90;999.90;;;9.90;45.50;;;;;;5008701;28;20725;-73
2023/04/04 10:52:16;;;;;;;1999.90;999.90;;;9.80;45.60;;;;;;5009130;28;20494;-75
2023/04/04 10:54:43;;;;;;;1999.90;999.90;;;9.60;44.70;;;;;;5008027;28;20406;-75
2023/04/04 10:57:09;;;;;;;1999.90;999.90;;;10.00;48.80;;;;;;5008077;28;20459;-75
2023/04/04 10:59:55;;;;;;;1999.90;999.90;;;10.00;50.50;;;;;;5009152;28;20414;-75
2023/04/04 11:02:54;;;;;;;1999.90;999.90;;;10.10;44.90;;;;;;5008210;28;20414;-73
2023/04/04 11:05:40;;;;;;;1999.90;999.90;;;10.20;47.70;;;;;;5008817;28;20423;-75
2023/04/04 11:08:08;;;;;;;1999.90;999.90;;;10.40;47.10;;;;;;5006637;28;20467;-75
2023/04/04 11:10:40;;;;;;;1999.90;999.90;;;10.60;48.40;;;;;;5008687;28;20509;-74
2023/04/04 11:13:16;;;;;;;1999.90;999.90;;;10.70;51.30;;;;;;5007937;28;20412;-76
2023/04/04 11:15:50;;;;;;;1999.90;999.90;;;10.80;45.30;;;;;;5007802;28;20411;-75
2023/04/04 11:18:19;;;;;;;1999.90;999.90;;;11.00;49.70;;;;;;5008073;28;20431;-75
2023/04/04 11:20:47;;;;;;;1999.90;999.90;;;11.10;45.30;;;;;;5007741;28;20427;-75
2023/04/04 11:23:21;;;;;;;1999.90;999.90;;;11.20;41.80;;;;;;5007740;28;20507;-73
2023/04/04 11:25:53;;;;;;;1999.90;999.90;;;11.40;40.10;;;;;;5008535;28;20478;-75
2023/04/04 11:28:34;;;;;;;1999.90;999.90;;;11.40;38.80;;;;;;5008232;28;20519;-75
2023/04/04 11:31:17;;;;;;;1999.90;999.90;;;11.30;35.20;;;;;;5008606;28;20543;-75
2023/04/04 11:34:10;;;;;;;1999.90;999.90;;;11.10;33.50;;;;;;5007387;28;20409;-78
2023/04/04 11:36:35;;;;;;;1999.90;999.90;;;11.10;32.50;;;;;;5005867;28;20427;-75
2023/04/04 11:39:08;;;;;;;1999.90;999.90;;;11.10;39.20;;;;;;5007364;28;20474;-75
2023/04/04 11:41:53;;;;;;;1999.90;999.90;;;11.10;34.20;;;;;;5007955;28;20181;-78
2023/04/04 11:44:24;;;;;;;1999.90;999.90;;;11.30;33.80;;;;;;5006716;28;20423;-75
2023/04/04 11:47:03;;;;;;;1999.90;999.90;;;11.30;44.10;;;;;;5007456;28;20428;-77
2023/04/04 11:49:30;;;;;;;1999.90;999.90;;;11.60;33.20;;;;;;5007740;28;20421;-75
2023/04/04 11:51:56;;;;;;;1999.90;999.90;;;12.00;29.10;;;;;;5008462;28;20551;-75
2023/04/04 11:54:23;;;;;;;1999.90;999.90;;;12.60;31.40;;;;;;5006903;28;20507;-76
2023/04/04 11:56:48;;;;;;;1999.90;999.90;;;13.50;29.30;;;;;;5006915;28;20438;-75
2023/04/04 11:59:19;;;;;;;1999.90;999.90;;;14.40;26.60;;;;;;5008344;28;20917;-75
2023/04/04 12:01:45;;;;;;;1999.90;999.90;;;15.30;24.40;;;;;;5007847;28;20188;-73
2023/04/04 12:04:11;;;;;;;1999.90;999.90;;;16.10;23.90;;;;;;5006944;28;20411;-73
2023/04/04 12:06:38;;;;;;;1999.90;999.90;;;16.90;22.20;;;;;;5007993;28;20412;-71
2023/04/04 12:09:05;;;;;;;1999.90;999.90;;;17.40;14.40;;;;;;5007595;28;20459;-74